Time;durP1;ratioP1;P1;durP2;ratioP2;P2;SDS_P1;SDS_P2;PMS_P1;PMS_P2;Temp;Humidity;BMP_temperature;BMP_pressure;BME280_temperature;BME280_humidity;BME280_pressure;Samples;Min_cycle;Max_cycle;Signal;HPM_P1;HPM_P2
2022/05/20 00:01:48;;;;;;;35.20;26.38;;;16.00;99.90;;;17.07;100.00;165033.84;4958898;28;20062;-84
2022/05/20 00:04:14;;;;;;;31.05;22.25;;;16.00;99.90;;;17.00;100.00;165016.44;4958833;28;20082;-87
2022/05/20 00:06:40;;;;;;;27.83;21.25;;;15.90;99.90;;;16.99;100.00;165013.72;4974346;28;20391;-86
2022/05/20 00:09:06;;;;;;;29.17;22.83;;;15.90;99.90;;;16.96;100.00;165004.34;4960159;28;20074;-86
2022/05/20 00:11:32;;;;;;;25.20;18.92;;;15.90;99.90;;;16.94;100.00;165000.34;4960308;28;20035;-84
2022/05/20 00:13:58;;;;;;;25.50;18.30;;;15.80;99.90;;;16.93;100.00;164996.28;4977253;28;20093;-85
2022/05/20 00:16:24;;;;;;;28.40;20.00;;;15.80;99.90;;;16.93;100.00;164997.66;4982385;28;20039;-85
2022/05/20 00:18:50;;;;;;;36.78;24.25;;;15.90;99.90;;;16.97;100.00;165007.03;4960192;28;20039;-87
2022/05/20 00:21:16;;;;;;;29.80;21.08;;;15.80;99.90;;;16.91;100.00;164990.94;4958650;28;20066;-86
2022/05/20 00:23:42;;;;;;;30.20;22.73;;;15.80;99.90;;;16.84;100.00;164974.88;4973322;28;20039;-86
2022/05/20 00:26:07;;;;;;;30.83;22.77;;;15.80;99.90;;;16.75;100.00;164949.38;4957219;28;20066;-83
2022/05/20 00:28:34;;;;;;;32.08;23.42;;;15.70;99.90;;;16.67;100.00;164929.25;4958416;28;20440;-83
2022/05/20 00:31:10;;;;;;;33.38;25.08;;;15.60;99.90;;;16.54;100.00;164894.34;4958515;28;20027;-87
2022/05/20 00:33:38;;;;;;;33.03;24.67;;;15.50;99.90;;;16.46;100.00;164871.56;4973375;28;20399;-85
2022/05/20 00:36:05;;;;;;;29.55;21.55;;;15.40;99.90;;;16.31;100.00;164834.00;4958475;28;20031;-85
2022/05/20 00:38:31;;;;;;;28.85;21.65;;;15.30;99.90;;;16.23;100.00;164812.59;4974350;28;20065;-87
2022/05/20 00:40:58;;;;;;;33.97;24.75;;;15.20;99.90;;;16.16;100.00;164793.81;4975059;28;20078;-86
2022/05/20 00:43:29;;;;;;;29.77;20.60;;;15.10;99.90;;;16.12;100.00;164781.72;4959906;28;20035;-86
2022/05/20 00:46:02;;;;;;;25.02;18.55;;;15.10;99.90;;;16.06;100.00;164765.66;4961411;28;20027;-88
2022/05/20 00:48:30;;;;;;;32.22;23.10;;;15.00;99.90;;;16.07;100.00;164768.34;4960610;28;20027;-85
2022/05/20 00:51:20;;;;;;;33.80;22.98;;;15.10;99.90;;;16.10;100.00;164777.72;4973248;28;20058;-86
2022/05/20 00:54:15;;;;;;;29.45;20.02;;;15.10;99.90;;;16.17;100.00;164795.16;4956796;28;20508;-86
2022/05/20 00:56:53;;;;;;;24.08;18.17;;;15.10;99.90;;;16.16;100.00;164793.81;4958665;28;20031;-88
2022/05/20 00:59:28;;;;;;;30.58;22.85;;;15.10;99.90;;;16.13;100.00;164784.44;4974855;28;20031;-88
2022/05/20 01:02:03;;;;;;;31.77;22.10;;;15.10;99.90;;;16.02;100.00;164756.25;4960590;28;20350;-88
2022/05/20 01:04:31;;;;;;;27.88;20.30;;;15.00;99.90;;;15.90;100.00;164724.09;4961124;28;20313;-88
2022/05/20 01:06:59;;;;;;;30.75;20.55;;;14.80;99.90;;;15.79;100.00;164696.00;4976802;28;20030;-87
2022/05/20 01:09:25;;;;;;;31.73;22.23;;;14.80;99.90;;;15.69;100.00;164669.19;4959303;28;20070;-86
2022/05/20 01:11:52;;;;;;;29.58;22.35;;;14.70;99.90;;;15.58;100.00;164639.69;4975269;28;20045;-85
2022/05/20 01:14:25;;;;;;;31.23;22.60;;;14.60;99.90;;;15.53;100.00;164626.31;4976244;28;20045;-86
2022/05/20 01:16:53;;;;;;;30.92;22.73;;;14.50;99.90;;;15.49;100.00;164614.25;4976415;28;20065;-87
2022/05/20 01:19:44;;;;;;;28.02;22.15;;;14.50;99.90;;;15.42;100.00;164595.41;4976644;28;20483;-86
2022/05/20 01:22:13;;;;;;;34.22;23.73;;;14.40;99.90;;;15.35;100.00;164578.00;4976692;28;20034;-84
2022/05/20 01:24:39;;;;;;;32.97;24.42;;;14.30;99.90;;;15.23;100.00;164547.22;4976077;28;20046;-84
2022/05/20 01:27:05;;;;;;;36.72;24.38;;;14.20;99.90;;;15.18;100.00;164532.50;4977307;28;20031;-86
2022/05/20 01:29:33;;;;;;;33.42;23.70;;;14.20;99.90;;;15.12;100.00;164517.72;4976243;28;20034;-85
2022/05/20 01:31:59;;;;;;;34.55;24.55;;;14.10;99.90;;;15.05;100.00;164499.00;4976691;28;20027;-85
2022/05/20 01:34:24;;;;;;;34.35;24.02;;;14.00;99.90;;;15.03;100.00;164492.25;4977737;28;20031;-85
2022/05/20 01:36:50;;;;;;;35.33;24.88;;;14.00;99.90;;;15.01;100.00;164486.94;4977361;28;20157;-86
2022/05/20 01:39:17;;;;;;;35.38;25.48;;;14.00;99.90;;;15.00;100.00;164484.25;4978369;28;20053;-85
2022/05/20 01:41:56;;;;;;;37.50;25.10;;;14.00;99.90;;;14.97;100.00;164476.19;4977402;28;20022;-87
2022/05/20 01:44:38;;;;;;;33.05;25.05;;;14.00;99.90;;;14.95;100.00;164472.22;4976504;28;20066;-85
2022/05/20 01:48:23;;;;;;;42.10;27.40;;;13.90;99.90;;;14.95;100.00;164470.88;4976181;28;20094;-89
2022/05/20 01:50:55;;;;;;;38.13;26.73;;;13.90;99.90;;;14.93;100.00;164466.81;4957840;28;20027;-87
2022/05/20 01:53:50;;;;;;;45.50;29.30;;;13.90;99.90;;;14.96;100.00;164474.84;4975464;28;20070;-86
2022/05/20 01:56:30;;;;;;;50.58;31.52;;;13.90;99.90;;;14.97;100.00;164477.56;4975217;28;20027;-88
2022/05/20 01:59:20;;;;;;;42.83;29.77;;;13.90;99.90;;;14.99;100.00;164481.59;4992517;28;20076;-87
2022/05/20 02:02:13;;;;;;;48.15;32.05;;;14.00;99.90;;;15.02;100.00;164490.97;4977094;28;20023;-86
2022/05/20 02:04:50;;;;;;;41.25;27.05;;;14.00;99.90;;;15.05;100.00;164499.00;4976497;28;20027;-85
2022/05/20 02:07:31;;;;;;;42.38;28.35;;;14.00;99.90;;;15.10;100.00;164512.38;4995441;28;20058;-85
2022/05/20 02:10:29;;;;;;;43.47;29.55;;;14.10;99.90;;;15.19;100.00;164536.47;4976532;28;20033;-87
2022/05/20 02:13:01;;;;;;;36.90;25.85;;;14.10;99.90;;;15.22;100.00;164544.50;4961746;28;20023;-85
2022/05/20 02:15:56;;;;;;;40.40;27.50;;;14.10;99.90;;;15.26;100.00;164553.91;4977042;28;20027;-88
2022/05/20 02:18:54;;;;;;;44.35;30.13;;;14.20;99.90;;;15.28;100.00;164559.28;4976827;28;20031;-88
2022/05/20 02:21:28;;;;;;;41.53;28.05;;;14.20;99.90;;;15.26;100.00;164555.25;4961511;28;20134;-87
2022/05/20 02:24:04;;;;;;;41.67;28.35;;;14.20;99.90;;;15.22;100.00;164543.16;4977221;28;20112;-86
2022/05/20 02:26:43;;;;;;;42.65;29.92;;;14.20;99.90;;;15.19;100.00;164536.47;4961877;28;20038;-86
2022/05/20 02:29:20;;;;;;;38.58;26.95;;;14.20;99.90;;;15.13;100.00;164519.06;4982338;28;20038;-87
2022/05/20 02:32:03;;;;;;;40.55;26.63;;;14.10;99.90;;;15.06;100.00;164500.31;4963809;28;20118;-85
2022/05/20 02:34:29;;;;;;;41.30;28.10;;;14.00;99.90;;;14.99;100.00;164481.59;4976081;28;20047;-86
2022/05/20 02:36:55;;;;;;;40.60;27.35;;;14.00;99.90;;;14.97;100.00;164477.56;4975919;28;20043;-85
2022/05/20 02:39:21;;;;;;;48.05;30.33;;;13.90;99.90;;;14.95;100.00;164472.22;4975014;28;20031;-85
2022/05/20 02:41:49;;;;;;;55.28;34.28;;;14.00;99.90;;;14.96;100.00;164473.56;4960387;28;20364;-87
2022/05/20 02:44:16;;;;;;;47.88;30.52;;;13.90;99.90;;;14.95;100.00;164472.22;4959983;28;20091;-89
2022/05/20 02:46:48;;;;;;;45.97;30.98;;;13.90;99.90;;;14.94;100.00;164469.50;4965366;28;20090;-87
2022/05/20 02:49:15;;;;;;;46.38;29.92;;;13.80;99.90;;;14.85;100.00;164445.41;4979426;28;20039;-87
2022/05/20 02:51:41;;;;;;;38.55;27.10;;;13.80;99.90;;;14.83;100.00;164438.72;4963811;28;20031;-87
2022/05/20 02:54:07;;;;;;;43.75;27.08;;;13.80;99.90;;;14.73;100.00;164413.28;4978764;28;20055;-90
2022/05/20 02:56:33;;;;;;;43.95;29.25;;;13.70;99.90;;;14.70;100.00;164405.25;4978924;28;20517;-87
2022/05/20 03:04:28;;;;;;;45.67;29.00;;;13.60;99.90;;;14.49;100.00;164349.00;4961999;29;20035;-87
2022/05/20 03:06:54;;;;;;;46.80;30.35;;;13.50;99.90;;;14.44;100.00;164335.63;4961792;28;20383;-86
2022/05/20 03:09:26;;;;;;;48.10;31.17;;;13.50;99.90;;;14.40;100.00;164324.91;4962182;28;20492;-86
2022/05/20 03:11:54;;;;;;;50.67;31.02;;;13.40;99.90;;;14.38;100.00;164319.56;4995369;28;20034;-86
2022/05/20 13:42:42;;;;;;;48.78;31.60;;;22.00;99.90;;;23.07;100.00;166632.94;522536;26;20323;-78
2022/05/20 13:51:38;;;;;;;60.55;38.13;;;21.30;99.90;;;22.00;100.00;166346.31;4977099;28;20046;-88
2022/05/20 13:54:37;;;;;;;43.20;24.77;;;20.90;99.90;;;21.79;100.00;166289.81;4990776;28;20132;-88
2022/05/20 13:57:28;;;;;;;20.25;14.65;;;20.80;99.90;;;21.52;100.00;166218.50;4964291;28;20550;-86
2022/05/20 14:01:04;;;;;;;;;;;;;;;;;;;;;
2022/05/20 14:07:23;;;;;;;15.52;8.65;;;20.30;99.90;;;21.15;100.00;166119.03;4967027;28;20056;-88
2022/05/20 16:27:26;;;;;;;6.38;2.72;;;19.70;99.90;;;20.55;100.00;165959.06;4976526;28;20058;-89
2022/05/20 16:31:44;;;;;;;3.67;2.05;;;19.50;99.90;;;20.66;100.00;165988.59;4972148;28;20057;-89
2022/05/20 16:34:21;;;;;;;2.27;1.90;;;19.50;99.90;;;20.54;100.00;165956.34;4957853;29;20155;-88
2022/05/20 16:37:31;;;;;;;5.68;1.67;;;19.50;99.90;;;20.57;100.00;165965.78;4950793;28;20303;-83
2022/05/20 16:40:25;;;;;;;;;;;;;;;;;;;;;
2022/05/20 16:42:55;;;;;;;4.63;2.00;;;19.40;99.90;;;20.27;100.00;165886.47;4956688;28;20099;-86
2022/05/20 16:50:21;;;;;;;3.40;1.67;;;19.10;99.90;;;20.04;100.00;165823.25;4875016;29;20107;-90
2022/05/20 16:53:09;;;;;;;;;;;;;;;;;;;;;
2022/05/20 19:53:05;;;;;;;11.27;7.95;;;14.80;99.90;;;15.91;100.00;164726.81;4977636;28;20411;-86
2022/05/20 19:55:48;;;;;;;11.63;8.93;;;14.90;99.90;;;15.89;100.00;164721.47;4959130;28;20100;-86
2022/05/20 20:01:31;;;;;;;15.93;12.80;;;14.90;99.90;;;15.88;100.00;164718.78;4958834;29;20038;-87
2022/05/20 20:03:59;;;;;;;24.10;18.80;;;14.90;99.90;;;15.79;100.00;164694.66;4950539;29;20055;-87
2022/05/20 20:06:29;;;;;;;19.80;17.27;;;14.90;99.90;;;15.89;100.00;164721.47;4952233;29;20543;-84
2022/05/20 20:09:06;;;;;;;22.73;20.30;;;14.90;99.90;;;15.90;100.00;164724.09;4958282;28;20478;-84
2022/05/20 20:11:36;;;;;;;21.92;18.58;;;14.90;99.90;;;15.88;100.00;164718.78;4940726;28;20495;-86
2022/05/20 20:34:16;;;;;;;18.92;16.83;;;14.70;99.90;;;15.86;100.00;164712.09;4873524;29;20029;-88
2022/05/20 20:38:45;;;;;;;;;;;;;;;;;;;;;
2022/05/20 20:42:57;;;;;;;;;;;;;;;;;;;;;
2022/05/20 20:57:55;;;;;;;18.73;16.38;;;14.70;99.90;;;15.66;100.00;164661.16;4884484;29;20033;-88
2022/05/20 21:05:14;;;;;;;;;;;;;;;;;;;;;
2022/05/20 21:12:31;;;;;;;;;;;;;;;;;;;;;
2022/05/20 21:19:13;;;;;;;13.23;9.57;;;14.60;99.90;;;15.42;100.00;164595.41;4942835;29;20048;-88
2022/05/20 21:22:52;;;;;;;11.13;8.07;;;14.50;99.90;;;15.31;98.96;164568.63;4951749;29;20095;-88
2022/05/20 21:26:50;;;;;;;;;;;;;;;;;;;;;
2022/05/20 21:51:44;;;;;;;;;;;;;;;;;;;;;
2022/05/20 21:55:17;;;;;;;;;;;;;;;;;;;;;
2022/05/20 22:23:46;;;;;;;;;;;;;;;;;;;;;
2022/05/20 22:31:40;;;;;;;;;;;;;;;;;;;;;
2022/05/20 22:39:12;;;;;;;7.43;3.42;;;13.70;99.90;;;14.59;88.47;164377.13;4940463;29;20051;-89
2022/05/20 22:42:27;;;;;;;5.30;2.75;;;13.70;99.90;;;14.70;88.99;164406.56;4941616;29;20036;-87
2022/05/20 22:44:49;;;;;;;6.25;3.38;;;13.60;99.90;;;14.65;87.22;164393.19;4940812;29;20048;-89
2022/05/20 22:52:16;;;;;;;6.10;2.60;;;13.70;99.90;;;14.58;85.98;164374.41;4942713;29;20120;-89
2022/05/20 22:59:25;;;;;;;;;;;;;;;;;;;;;
2022/05/20 23:07:07;;;;;;;;;;;;;;;;;;;;;
2022/05/20 23:18:19;;;;;;;;;;;13.50;99.90;;;14.48;92.33;164347.63;4970129;28;20024;-84
2022/05/20 23:21:14;;;;;;;6.88;4.70;;;13.50;99.90;;;14.37;93.44;164318.22;4970036;29;19963;-89
2022/05/20 23:24:03;;;;;;;5.90;4.57;;;13.40;99.90;;;14.29;93.47;164295.41;4939541;29;20145;-89
2022/05/20 23:27:34;;;;;;;;;;;;;;;;;;;;;
2022/05/20 23:30:29;;;;;;;8.25;5.10;;;13.20;99.90;;;14.09;94.95;164243.19;4940217;29;20095;-87
2022/05/20 23:36:16;;;;;;;;;;;;;;;;;;;;;
2022/05/20 23:40:06;;;;;;;;;;;;;;;;;;;;;
2022/05/20 23:42:55;;;;;;;7.55;4.78;;;13.10;99.90;;;14.12;96.30;164252.56;4925183;29;20040;-86
2022/05/20 23:46:07;;;;;;;7.97;5.40;;;13.10;99.90;;;14.08;95.90;164241.84;4938812;29;20456;-89
2022/05/20 23:49:25;;;;;;;;;;;;;;;;;;;;;
2022/05/20 23:53:20;;;;;;;;;;;;;;;;;;;;;
